Time;durP1;ratioP1;P1;durP2;ratioP2;P2;SDS_P1;SDS_P2;PMS_P1;PMS_P2;Temp;Humidity;BMP_temperature;BMP_pressure;BME280_temperature;BME280_humidity;BME280_pressure;Samples;Min_cycle;Max_cycle;Signal;HPM_P1;HPM_P2
2021/08/24 00:00:16;;;;;;;3.97;3.67;;;;;;;11.34;100.00;98660.13;5050091;28;20223;-70
2021/08/24 00:02:45;;;;;;;4.33;4.03;;;;;;;11.38;100.00;98655.34;5052381;28;20230;-70
2021/08/24 00:05:14;;;;;;;4.33;4.03;;;;;;;11.31;100.00;98654.31;5053971;28;20291;-70
2021/08/24 00:07:42;;;;;;;4.20;3.90;;;;;;;11.32;100.00;98650.66;5048473;28;20206;-70
2021/08/24 00:10:11;;;;;;;3.93;3.67;;;;;;;11.33;100.00;98644.38;5050004;28;20915;-70
2021/08/24 00:12:39;;;;;;;4.77;4.47;;;;;;;11.37;100.00;98646.59;5053346;28;20214;-70
2021/08/24 00:15:09;;;;;;;5.47;4.97;;;;;;;11.35;100.00;98655.66;5045607;28;20377;-70
2021/08/24 00:17:38;;;;;;;5.03;4.63;;;;;;;11.45;100.00;98653.75;5044412;28;20203;-70
2021/08/24 00:20:07;;;;;;;4.53;4.20;;;;;;;11.39;100.00;98655.22;5045119;28;20199;-69
2021/08/24 00:22:36;;;;;;;4.13;3.83;;;;;;;11.46;100.00;98655.41;5046998;28;20419;-70
2021/08/24 00:25:06;;;;;;;4.43;4.03;;;;;;;11.42;100.00;98654.06;5045562;28;20233;-70
2021/08/24 00:27:34;;;;;;;4.53;4.13;;;;;;;11.53;100.00;98651.16;5047404;28;20461;-70
2021/08/24 00:30:03;;;;;;;4.90;4.50;;;;;;;11.50;100.00;98655.97;5041760;28;20227;-70
2021/08/24 00:32:31;;;;;;;8.27;4.37;;;;;;;11.40;100.00;98648.94;5044523;28;20672;-70
2021/08/24 00:35:00;;;;;;;4.70;4.30;;;;;;;11.41;100.00;98644.44;5041939;28;20694;-69
2021/08/24 00:37:28;;;;;;;4.90;4.50;;;;;;;11.34;100.00;98649.50;5050434;28;20215;-70
2021/08/24 00:39:56;;;;;;;4.73;4.37;;;;;;;11.56;100.00;98644.72;5047947;28;20603;-69
2021/08/24 00:42:24;;;;;;;5.13;4.63;;;;;;;11.48;100.00;98644.66;5047348;28;20254;-69
2021/08/24 00:44:52;;;;;;;4.80;4.40;;;;;;;11.47;100.00;98648.31;5049913;28;20202;-69
2021/08/24 00:47:21;;;;;;;4.83;4.53;;;;;;;11.41;100.00;98649.75;5042843;28;20206;-69
2021/08/24 00:49:50;;;;;;;4.77;4.47;;;;;;;11.37;100.00;98654.53;5041993;28;20219;-70
2021/08/24 00:52:23;;;;;;;4.80;4.30;;;;;;;11.42;100.00;98656.72;5046974;28;20227;-70
2021/08/24 00:54:51;;;;;;;4.50;4.20;;;;;;;11.42;100.00;98660.22;5045281;28;20230;-70
2021/08/24 00:57:23;;;;;;;4.97;4.20;;;;;;;11.44;100.00;98646.78;5041722;28;20246;-69
2021/08/24 00:59:51;;;;;;;4.90;4.57;;;;;;;11.39;100.00;98654.38;5050098;28;20679;-70
2021/08/24 01:02:21;;;;;;;4.70;4.40;;;;;;;11.37;100.00;98645.72;5044626;28;20219;-70
2021/08/24 01:04:51;;;;;;;4.37;4.07;;;;;;;11.40;100.00;98648.06;5046309;28;20276;-70
2021/08/24 01:07:22;;;;;;;5.03;4.63;;;;;;;11.43;100.00;98645.13;5042647;28;20207;-69
2021/08/24 01:09:54;;;;;;;4.57;4.27;;;;;;;11.37;100.00;98646.59;5046798;28;20230;-71
2021/08/24 01:12:33;;;;;;;4.80;4.50;;;;;;;11.39;100.00;98634.00;5044429;28;20699;-70
2021/08/24 01:15:09;;;;;;;6.17;5.60;;;;;;;11.43;100.00;98645.13;5051845;28;20697;-70
2021/08/24 01:17:41;;;;;;;5.60;5.13;;;;;;;11.38;100.00;98648.25;5050343;28;20660;-70
2021/08/24 01:20:34;;;;;;;4.63;4.23;;;;;;;11.40;100.00;98637.47;5054230;28;20196;-69
2021/08/24 01:23:33;;;;;;;5.43;5.03;;;;;;;11.38;100.00;98640.28;5061760;28;20694;-69
2021/08/24 01:26:07;;;;;;;5.40;4.90;;;;;;;11.40;100.00;98632.16;5049578;28;20213;-70
2021/08/24 01:28:40;;;;;;;5.37;5.00;;;;;;;11.45;100.00;98648.44;5049982;28;20207;-69
2021/08/24 01:31:23;;;;;;;5.43;5.03;;;;;;;11.45;100.00;98651.09;5045723;28;20230;-70
2021/08/24 01:33:58;;;;;;;5.63;5.23;;;;;;;11.47;100.00;98641.16;5049523;28;20199;-70
2021/08/24 01:36:32;;;;;;;6.43;5.87;;;;;;;11.53;100.00;98639.72;5046053;28;20214;-70
2021/08/24 01:39:03;;;;;;;5.57;5.07;;;;;;;11.52;100.00;98644.19;5047804;28;20206;-70
2021/08/24 01:41:49;;;;;;;7.83;5.83;;;;;;;11.49;100.00;98644.50;5046744;28;20231;-69
2021/08/24 01:44:20;;;;;;;6.10;5.53;;;;;;;11.56;100.00;98645.56;5048099;28;20208;-70
2021/08/24 01:46:54;;;;;;;5.67;5.00;;;;;;;11.57;100.00;98638.44;5051116;28;20555;-69
2021/08/24 01:49:35;;;;;;;5.97;5.50;;;;;;;11.54;100.00;98649.34;5045999;28;20227;-69
2021/08/24 01:52:08;;;;;;;6.40;5.90;;;;;;;11.50;100.00;98661.28;5055948;28;20230;-69
2021/08/24 01:54:40;;;;;;;5.83;5.33;;;;;;;11.58;100.00;98651.56;5053736;28;20203;-70
2021/08/24 01:57:12;;;;;;;6.50;6.00;;;;;;;11.60;100.00;98647.91;5052060;28;20574;-70
2021/08/24 01:59:43;;;;;;;5.73;5.23;;;;;;;11.57;100.00;98644.59;5053492;28;20225;-70
2021/08/24 02:02:14;;;;;;;5.53;5.20;;;;;;;11.57;100.00;98652.53;5051861;28;20234;-70
2021/08/24 02:04:47;;;;;;;6.00;5.60;;;;;;;11.47;100.00;98654.44;5051476;28;20199;-69
2021/08/24 02:07:18;;;;;;;5.67;5.27;;;;;;;11.44;100.00;98652.94;5048361;28;20204;-69
2021/08/24 02:09:48;;;;;;;5.63;4.73;;;;;;;11.51;100.00;98647.00;5046848;28;20230;-70
2021/08/24 02:12:19;;;;;;;5.87;5.37;;;;;;;11.43;100.00;98638.00;5052636;28;20219;-69
2021/08/24 02:14:47;;;;;;;5.90;5.50;;;;;;;11.36;100.00;98644.88;5052789;28;20199;-69
2021/08/24 02:17:17;;;;;;;6.17;5.63;;;;;;;11.43;100.00;98645.13;5050518;28;20233;-70
2021/08/24 02:19:48;;;;;;;6.47;5.90;;;;;;;11.43;100.00;98653.06;5051046;28;20219;-69
2021/08/24 02:22:20;;;;;;;6.40;6.00;;;;;;;11.43;100.00;98651.28;5049890;28;20727;-70
2021/08/24 02:24:52;;;;;;;6.17;5.63;;;;;;;11.43;100.00;98653.06;5045962;28;20710;-69
2021/08/24 02:27:24;;;;;;;6.20;5.70;;;;;;;11.31;100.00;98643.69;5051725;28;20761;-69
2021/08/24 02:29:52;;;;;;;6.77;5.97;;;;;;;11.35;100.00;98645.88;5050779;28;20195;-70
2021/08/24 02:32:23;;;;;;;5.60;5.23;;;;;;;11.36;100.00;98647.53;5049446;28;20707;-70
2021/08/24 02:34:54;;;;;;;5.70;5.30;;;;;;;11.35;100.00;98645.88;5047800;28;20211;-70
2021/08/24 02:37:27;;;;;;;6.27;5.50;;;;;;;11.34;100.00;98651.34;5046723;28;20204;-69
2021/08/24 02:40:04;;;;;;;6.07;5.67;;;;;;;11.29;100.00;98652.66;5047936;28;20210;-69
2021/08/24 02:42:35;;;;;;;6.73;6.07;;;;;;;11.35;100.00;98659.13;5044977;28;20203;-70
2021/08/24 02:45:07;;;;;;;5.80;5.40;;;;;;;11.42;100.00;98648.75;5049720;28;20284;-70
2021/08/24 02:47:35;;;;;;;7.17;6.47;;;;;;;11.45;100.00;98648.44;5044705;28;20303;-70
2021/08/24 02:50:05;;;;;;;6.70;6.13;;;;;;;11.48;100.00;98656.09;5045512;28;20227;-70
2021/08/24 02:52:36;;;;;;;6.13;5.73;;;;;;;11.46;100.00;98655.41;5046574;28;20618;-69
2021/08/24 02:55:05;;;;;;;5.77;5.17;;;;;;;11.36;100.00;98652.03;5043804;28;20226;-70
2021/08/24 02:57:33;;;;;;;6.23;5.63;;;;;;;11.47;100.00;98641.16;5043723;28;20622;-70
2021/08/24 03:00:01;;;;;;;6.00;5.50;;;;;;;11.43;100.00;98647.78;5045170;28;20222;-71
2021/08/24 03:02:29;;;;;;;6.17;5.70;;;;;;;11.50;100.00;98656.78;5048563;28;20239;-70
2021/08/24 03:04:57;;;;;;;6.43;5.83;;;;;;;11.53;100.00;98647.69;5046255;28;20634;-70
2021/08/24 03:07:28;;;;;;;6.00;5.50;;;;;;;11.49;100.00;98652.47;5036691;28;20207;-69
2021/08/24 03:10:02;;;;;;;11.60;5.97;;;;;;;11.47;100.00;98651.78;5035979;28;20237;-70
2021/08/24 03:12:39;;;;;;;6.77;6.17;;;;;;;11.47;100.00;98641.16;5046506;28;20228;-70
2021/08/24 03:15:12;;;;;;;6.53;6.07;;;;;;;11.50;100.00;98646.16;5046408;28;20237;-71
2021/08/24 03:17:45;;;;;;;6.10;5.50;;;;;;;11.51;100.00;98644.34;5052854;28;20281;-70
2021/08/24 03:20:15;;;;;;;5.97;5.53;;;;;;;11.56;100.00;98645.56;5041942;28;20322;-71
2021/08/24 03:22:44;;;;;;;6.13;5.60;;;;;;;11.56;100.00;98634.97;5045769;28;20211;-71
2021/08/24 03:25:14;;;;;;;6.80;6.20;;;;;;;11.53;100.00;98643.19;5047858;28;20226;-70
2021/08/24 03:27:43;;;;;;;6.20;5.80;;;;;;;11.57;100.00;98635.78;5047163;28;20216;-71
2021/08/24 03:30:14;;;;;;;6.23;5.73;;;;;;;11.55;100.00;98640.41;5046231;28;20211;-71
2021/08/24 03:32:42;;;;;;;6.10;5.60;;;;;;;11.54;100.00;98641.38;5043990;28;20936;-71
2021/08/24 03:35:11;;;;;;;5.63;5.13;;;;;;;11.57;100.00;98641.94;5044770;28;20211;-71
2021/08/24 03:37:39;;;;;;;6.10;5.50;;;;;;;11.52;100.00;98636.22;5046042;28;20210;-71
2021/08/24 03:40:09;;;;;;;6.37;5.90;;;;;;;11.60;100.00;98632.00;5043217;28;20204;-70
2021/08/24 03:42:39;;;;;;;7.10;5.20;;;;;;;11.50;100.00;98638.19;5042737;28;20569;-70
2021/08/24 03:45:08;;;;;;;6.43;5.80;;;;;;;11.54;100.00;98628.94;5047888;28;20218;-70
2021/08/24 03:47:36;;;;;;;5.70;5.30;;;;;;;11.53;100.00;98624.63;5043529;28;20668;-69
2021/08/24 03:50:05;;;;;;;5.43;4.97;;;;;;;11.69;100.00;98628.41;5049898;28;20208;-70
2021/08/24 03:52:33;;;;;;;6.40;5.90;;;;;;;11.62;100.00;98636.13;5043581;28;20227;-69
2021/08/24 03:55:02;;;;;;;5.40;5.00;;;;;;;11.69;100.00;98629.22;5047733;28;20215;-70
2021/08/24 03:57:30;;;;;;;4.63;4.23;;;;;;;11.62;100.00;98636.13;5043528;28;20635;-71
2021/08/24 03:59:59;;;;;;;6.17;5.67;;;;;;;11.64;100.00;98636.00;5049643;28;20557;-70
2021/08/24 04:02:27;;;;;;;5.23;4.77;;;;;;;11.55;100.00;98630.63;5042806;28;20782;-70
2021/08/24 04:04:55;;;;;;;5.30;4.80;;;;;;;11.57;100.00;98636.63;5044878;28;20204;-70
2021/08/24 04:07:24;;;;;;;5.23;4.73;;;;;;;11.57;100.00;98639.28;5042792;28;20216;-71
2021/08/24 04:09:53;;;;;;;5.23;4.83;;;;;;;11.57;100.00;98649.03;5047299;28;20211;-70
2021/08/24 04:12:21;;;;;;;5.70;5.10;;;;;;;11.53;100.00;98642.38;5032549;28;20286;-69
2021/08/24 04:14:49;;;;;;;6.00;4.83;;;;;;;11.61;100.00;98646.94;5037156;28;20265;-69
2021/08/24 04:17:18;;;;;;;5.47;5.00;;;;;;;11.58;100.00;98658.69;5044498;28;20214;-70
2021/08/24 04:19:46;;;;;;;5.80;5.17;;;;;;;11.75;100.00;98664.13;5043304;28;20927;-70
2021/08/24 04:22:22;;;;;;;5.43;4.77;;;;;;;11.68;100.00;98654.09;5043633;28;20219;-71
2021/08/24 04:24:50;;;;;;;5.93;4.63;;;;;;;11.62;100.00;98651.25;5045034;28;20215;-70
2021/08/24 04:27:18;;;;;;;4.83;4.53;;;;;;;11.63;100.00;98655.56;5044864;28;20656;-68
2021/08/24 04:29:46;;;;;;;4.97;4.57;;;;;;;11.61;100.00;98657.53;5046332;28;20211;-68
2021/08/24 04:32:19;;;;;;;5.47;4.97;;;;;;;11.62;100.00;98664.53;5044454;28;20235;-70
2021/08/24 04:34:46;;;;;;;4.70;4.40;;;;;;;11.77;100.00;98665.63;5040994;28;20203;-68
2021/08/24 04:37:14;;;;;;;5.37;4.93;;;;;;;11.60;100.00;98675.28;5039755;28;20207;-68
2021/08/24 04:39:42;;;;;;;5.50;4.67;;;;;;;11.62;100.00;98675.13;5042924;28;20208;-69
2021/08/24 04:42:10;;;;;;;5.70;5.23;;;;;;;11.74;100.00;98673.91;5044399;28;20219;-69
2021/08/24 04:44:39;;;;;;;5.10;4.80;;;;;;;11.69;100.00;98678.84;5044917;28;20202;-69
2021/08/24 04:47:07;;;;;;;5.17;4.73;;;;;;;11.73;100.00;98674.88;5044486;28;20206;-69
2021/08/24 04:49:36;;;;;;;4.90;4.60;;;;;;;11.81;100.00;98677.59;5052238;28;20386;-68
2021/08/24 04:52:04;;;;;;;5.43;4.93;;;;;;;11.73;100.00;98680.19;5055323;28;20700;-69
2021/08/24 04:54:34;;;;;;;4.73;4.33;;;;;;;11.80;100.00;98685.72;5051101;28;20215;-69
2021/08/24 04:57:03;;;;;;;5.20;4.80;;;;;;;11.65;100.00;98683.59;5050116;28;20199;-69
2021/08/24 04:59:31;;;;;;;5.10;4.70;;;;;;;11.65;100.00;98688.09;5050023;28;20334;-68
2021/08/24 05:02:00;;;;;;;8.67;5.03;;;;;;;11.75;100.00;98680.06;5054036;28;20615;-67
2021/08/24 05:04:28;;;;;;;5.63;5.13;;;;;;;11.73;100.00;98677.53;5048111;28;20422;-68
2021/08/24 05:06:57;;;;;;;5.73;4.47;;;;;;;11.73;100.00;98688.97;5050486;28;20207;-68
2021/08/24 05:09:25;;;;;;;5.13;4.73;;;;;;;11.77;100.00;98686.84;5050708;28;20630;-68
2021/08/24 05:11:53;;;;;;;5.73;4.60;;;;;;;11.79;100.00;98692.84;5049628;28;20742;-68
2021/08/24 05:14:21;;;;;;;5.60;5.10;;;;;;;11.80;100.00;98691.03;5050152;28;20210;-68
2021/08/24 05:16:54;;;;;;;4.90;4.60;;;;;;;11.82;100.00;98689.06;5052948;28;20492;-69
2021/08/24 05:19:22;;;;;;;5.00;4.57;;;;;;;11.86;100.00;98695.72;5054265;28;20252;-67
2021/08/24 05:21:50;;;;;;;5.93;5.27;;;;;;;11.85;100.00;98694.06;5050054;28;20219;-68
2021/08/24 05:24:19;;;;;;;4.50;4.20;;;;;;;11.90;100.00;98701.53;5053805;28;20242;-68
2021/08/24 05:26:47;;;;;;;5.53;5.13;;;;;;;11.86;100.00;98712.47;5050917;28;20424;-69
2021/08/24 05:29:16;;;;;;;5.20;4.70;;;;;;;11.87;100.00;98708.84;5048292;28;20664;-69
2021/08/24 05:31:45;;;;;;;5.90;5.17;;;;;;;11.85;100.00;98697.53;5047709;28;20227;-69
2021/08/24 05:34:13;;;;;;;4.87;4.47;;;;;;;11.96;100.00;98699.13;5052072;28;20207;-68
2021/08/24 05:36:41;;;;;;;5.07;4.77;;;;;;;12.02;100.00;98697.69;5050803;28;20203;-68
2021/08/24 05:39:11;;;;;;;6.80;4.50;;;;;;;12.04;100.00;98705.50;5048582;28;20461;-68
2021/08/24 05:41:40;;;;;;;5.30;4.83;;;;;;;12.02;100.00;98709.13;5053836;28;20432;-68
2021/08/24 05:44:09;;;;;;;5.67;5.17;;;;;;;11.99;100.00;98705.94;5056147;28;20361;-68
2021/08/24 05:46:38;;;;;;;5.30;4.83;;;;;;;12.14;100.00;98708.91;5051347;28;20258;-69
2021/08/24 05:49:09;;;;;;;5.13;4.73;;;;;;;12.12;100.00;98714.34;5050589;28;20667;-69
2021/08/24 05:51:37;;;;;;;4.93;4.50;;;;;;;12.16;100.00;98715.72;5050837;28;20231;-68
2021/08/24 05:54:06;;;;;;;4.40;4.00;;;;;;;12.23;100.00;98715.94;5050468;28;20777;-68
2021/08/24 05:56:34;;;;;;;5.57;5.13;;;;;;;12.19;100.00;98719.91;5052350;28;20209;-68
2021/08/24 05:59:04;;;;;;;4.30;4.00;;;;;;;12.28;100.00;98729.56;5049875;28;20203;-68
2021/08/24 06:01:33;;;;;;;4.77;4.40;;;;;;;12.34;100.00;98725.47;5045913;28;20660;-68
2021/08/24 06:04:01;;;;;;;4.10;3.90;;;;;;;12.40;100.00;98729.28;5046266;28;20516;-68
2021/08/24 06:06:31;;;;;;;6.40;4.80;;;;;;;12.44;100.00;98725.31;5044584;28;20218;-69
2021/08/24 06:09:04;;;;;;;4.73;4.33;;;;;;;12.55;100.00;98726.88;5045539;28;20196;-68
2021/08/24 06:11:34;;;;;;;5.20;4.70;;;;;;;12.57;100.00;98730.22;5048823;28;20231;-68
2021/08/24 06:14:05;;;;;;;5.77;5.20;;;;;;;12.63;100.00;98726.91;5049346;28;20219;-68
2021/08/24 06:16:34;;;;;;;5.40;4.90;;;;;;;12.77;100.00;98722.81;5046437;28;20210;-67
2021/08/24 06:19:03;;;;;;;4.43;4.03;;;;;;;12.85;100.00;98722.03;5055034;28;20203;-69
2021/08/24 06:21:31;;;;;;;5.30;4.83;;;;;;;12.77;100.00;98722.00;5046353;28;20223;-68
2021/08/24 06:23:59;;;;;;;5.63;4.70;;;;;;;12.83;100.00;98724.03;5049364;28;20199;-69
2021/08/24 06:26:27;;;;;;;5.37;4.73;;;;;;;12.69;100.00;98718.31;5053057;28;20600;-68
2021/08/24 06:28:55;;;;;;;5.40;5.00;;;;;;;12.67;100.00;98730.09;5051448;28;20210;-69
2021/08/24 06:31:29;;;;;;;5.10;4.60;;;;;;;12.79;100.00;98723.50;5047959;28;20783;-68
2021/08/24 06:33:57;;;;;;;4.87;4.47;;;;;;;12.90;100.00;98735.69;5045570;28;20576;-68
2021/08/24 06:36:25;;;;;;;5.33;4.87;;;;;;;12.95;100.00;98733.38;5051724;28;20216;-68
2021/08/24 06:38:53;;;;;;;7.07;4.70;;;;;;;13.19;100.00;98731.78;5052386;28;20199;-68
2021/08/24 06:41:22;;;;;;;5.57;5.07;;;;;;;13.30;100.00;98734.13;5049270;28;20223;-67
2021/08/24 06:43:51;;;;;;;5.40;4.90;;;;;;;13.26;100.00;98729.31;5051391;28;20203;-69
2021/08/24 06:46:19;;;;;;;5.00;4.60;;;;;;;13.31;100.00;98733.13;5050134;28;20199;-67
2021/08/24 06:48:48;;;;;;;5.00;4.60;;;;;;;13.25;100.00;98739.13;5046381;28;20492;-68
2021/08/24 06:51:16;;;;;;;5.37;4.97;;;;;;;13.14;100.00;98739.44;5048614;28;20232;-68
2021/08/24 06:53:44;;;;;;;6.63;4.80;;;;;;;13.21;100.00;98739.59;5046179;28;20513;-68
2021/08/24 06:56:12;;;;;;;5.30;4.90;;;;;;;13.21;100.00;98728.94;5048172;28;20198;-68
2021/08/24 06:58:40;;;;;;;4.80;4.40;;;;;;;13.30;100.00;98735.97;5050406;28;20721;-69
2021/08/24 07:01:14;;;;;;;5.73;4.97;;;;;;;13.47;100.00;98736.88;5050997;28;20218;-71
2021/08/24 07:03:42;;;;;;;5.47;5.00;;;;;;;13.41;100.00;98742.78;5046420;28;20632;-70
2021/08/24 07:06:12;;;;;;;5.40;4.93;;;;;;;13.20;100.00;98733.44;5049917;28;20583;-70
2021/08/24 07:08:40;;;;;;;4.93;4.53;;;;;;;13.34;100.00;98733.81;5046297;28;20207;-68
2021/08/24 07:11:08;;;;;;;5.77;5.37;;;;;;;13.56;100.00;98727.88;5050458;28;20245;-70
2021/08/24 07:13:36;;;;;;;5.00;4.70;;;;;;;13.64;100.00;98728.88;5051451;28;20239;-70
2021/08/24 07:16:06;;;;;;;5.40;5.00;;;;;;;13.77;100.00;98737.19;5049876;28;20215;-70
2021/08/24 07:18:35;;;;;;;5.43;5.00;;;;;;;13.70;100.00;98738.88;5046448;28;20584;-70
2021/08/24 07:21:03;;;;;;;5.30;4.90;;;;;;;13.71;100.00;98743.19;5051792;28;20219;-70
2021/08/24 07:23:32;;;;;;;7.53;4.97;;;;;;;13.66;100.00;98749.03;5055621;28;20199;-70
2021/08/24 07:26:00;;;;;;;5.93;5.30;;;;;;;13.63;100.00;98743.19;5055851;28;20242;-70
2021/08/24 07:28:28;;;;;;;5.70;5.23;;;;;;;13.48;100.00;98749.19;5049305;28;20203;-70
2021/08/24 07:30:56;;;;;;;5.90;5.30;;;;;;;13.64;100.00;98742.19;5055004;28;20246;-70
2021/08/24 07:33:25;;;;;;;5.20;4.77;;;;;;;13.53;100.00;98751.34;5047712;28;20310;-70
2021/08/24 07:35:53;;;;;;;5.73;5.23;;;;;;;13.59;100.00;98746.19;5049380;28;20670;-70
2021/08/24 07:38:21;;;;;;;5.53;5.03;;;;;;;13.67;100.00;98752.50;5048868;28;20566;-68
2021/08/24 07:40:50;;;;;;;5.83;5.33;;;;;;;13.67;100.00;98749.84;5049712;28;20227;-70
2021/08/24 07:43:18;;;;;;;5.30;4.90;;;;;;;13.59;100.00;98750.66;5045986;28;20199;-70
2021/08/24 07:45:47;;;;;;;6.20;5.60;;;;;;;13.70;100.00;98762.84;5049653;28;20204;-70
2021/08/24 07:48:16;;;;;;;5.70;5.30;;;;;;;13.68;100.00;98762.16;5045207;28;20234;-70
2021/08/24 07:50:44;;;;;;;6.70;5.37;;;;;;;13.65;100.00;98754.50;5044593;28;20223;-71
2021/08/24 07:53:12;;;;;;;5.50;5.13;;;;;;;13.73;100.00;98755.34;5048058;28;20235;-70
2021/08/24 07:55:41;;;;;;;6.50;5.43;;;;;;;13.84;100.00;98764.88;5045617;28;20615;-70
2021/08/24 07:58:10;;;;;;;6.80;6.27;;;;;;;13.84;100.00;98766.69;5051470;28;20207;-70
2021/08/24 08:00:38;;;;;;;5.97;5.43;;;;;;;14.22;100.00;98764.31;5047118;28;20619;-71
2021/08/24 08:03:06;;;;;;;5.77;5.17;;;;;;;14.21;100.00;98767.19;5051059;28;20203;-70
2021/08/24 08:05:34;;;;;;;9.23;5.90;;;;;;;14.15;100.00;98772.16;5045729;28;20318;-70
2021/08/24 08:08:03;;;;;;;5.77;5.37;;;;;;;14.30;100.00;98769.63;5043731;28;20584;-69
2021/08/24 08:10:31;;;;;;;5.83;5.33;;;;;;;14.25;100.00;98781.84;5051706;28;20224;-70
2021/08/24 08:12:58;;;;;;;6.10;5.60;;;;;;;13.97;100.00;98776.84;5050538;28;20211;-71
2021/08/24 08:15:31;;;;;;;6.10;5.60;;;;;;;14.16;100.00;98775.66;5048955;28;20662;-69
2021/08/24 08:18:01;;;;;;;6.07;5.47;;;;;;;14.30;100.00;98782.97;5064770;28;20282;-70
2021/08/24 08:20:29;;;;;;;5.73;5.20;;;;;;;14.35;100.00;98774.47;5064455;28;20224;-71
2021/08/24 08:22:57;;;;;;;6.17;5.43;;;;;;;14.59;100.00;98781.59;5050895;28;20575;-71
2021/08/24 08:25:25;;;;;;;6.43;5.67;;;;;;;14.70;100.00;98780.44;5048147;28;20596;-71
2021/08/24 08:27:53;;;;;;;6.33;5.83;;;;;;;15.15;100.00;98795.94;5047361;28;20218;-71
2021/08/24 08:30:22;;;;;;;6.20;5.73;;;;;;;15.16;100.00;98789.59;5046200;28;20211;-70
2021/08/24 08:32:51;;;;;;;5.93;5.53;;;;;;;14.92;100.00;98783.34;5045392;28;20199;-71
2021/08/24 08:35:19;;;;;;;5.93;5.50;;;;;;;14.96;100.00;98789.19;5046690;28;20746;-71
2021/08/24 08:37:48;;;;;;;6.30;5.80;;;;;;;14.95;100.00;98791.00;5045053;28;20215;-71
2021/08/24 08:40:20;;;;;;;11.67;6.13;;;;;;;15.25;100.00;98790.41;5051706;28;20207;-71
2021/08/24 08:42:57;;;;;;;6.83;6.13;;;;;;;15.38;100.00;98787.97;5043001;28;20211;-71
2021/08/24 08:45:33;;;;;;;6.57;5.77;;;;;;;15.31;100.00;98787.84;5046846;28;20972;-70
2021/08/24 08:48:19;;;;;;;5.93;5.47;;;;;;;15.04;100.00;98789.13;5042672;28;20285;-71
2021/08/24 08:50:50;;;;;;;6.67;6.17;;;;;;;14.82;100.00;98788.91;5044570;28;20245;-72
2021/08/24 08:53:26;;;;;;;6.20;5.80;;;;;;;14.89;100.00;98781.88;5046620;28;20203;-71
2021/08/24 08:55:56;;;;;;;6.23;5.73;;;;;;;14.72;100.00;98774.91;5048215;28;20209;-72
2021/08/24 08:58:33;;;;;;;6.00;5.50;;;;;;;14.85;100.00;98787.72;5046941;28;20224;-71
2021/08/24 09:01:05;;;;;;;6.83;6.23;;;;;;;14.81;100.00;98781.91;5051936;28;20714;-71
2021/08/24 09:03:45;;;;;;;6.03;5.63;;;;;;;15.00;100.00;98780.66;5050575;28;20227;-72
2021/08/24 09:06:15;;;;;;;5.63;5.13;;;;;;;15.16;100.00;98777.09;5051542;28;20524;-71
2021/08/24 09:08:43;;;;;;;6.10;5.70;;;;;;;15.26;100.00;98773.38;5051260;28;20198;-72
2021/08/24 09:11:11;;;;;;;7.17;6.53;;;;;;;15.27;100.00;98767.84;5048525;28;20254;-71
2021/08/24 09:13:42;;;;;;;6.60;6.10;;;;;;;15.42;100.00;98770.59;5046389;28;20296;-71
2021/08/24 09:16:15;;;;;;;7.03;6.33;;;;;;;15.60;100.00;98774.84;5049379;28;20207;-72
2021/08/24 09:18:48;;;;;;;6.20;5.70;;;;;;;15.89;100.00;98773.31;5045321;28;20206;-72
2021/08/24 09:21:22;;;;;;;7.60;6.47;;;;;;;16.03;100.00;98772.53;5044165;28;20216;-72
2021/08/24 09:23:52;;;;;;;6.60;6.13;;;;;;;15.97;100.00;98770.59;5045575;28;20206;-72
2021/08/24 09:26:48;;;;;;;6.57;6.07;;;;;;;16.23;100.00;98774.69;5048828;28;20214;-71
2021/08/24 09:29:18;;;;;;;6.17;5.77;;;;;;;16.29;100.00;98773.97;5038758;28;20206;-71
2021/08/24 09:31:48;;;;;;;6.30;5.80;;;;;;;16.20;100.00;98769.69;5047485;28;20219;-72
2021/08/24 09:34:19;;;;;;;6.70;6.20;;;;;;;16.02;100.00;98768.19;5047225;28;20235;-72
2021/08/24 09:36:47;;;;;;;7.60;6.00;;;;;;;16.03;100.00;98767.19;5053023;28;20213;-71
2021/08/24 09:39:15;;;;;;;6.50;6.00;;;;;;;16.25;100.00;98766.50;5047009;28;20324;-72
2021/08/24 09:41:49;;;;;;;6.47;5.90;;;;;;;16.27;100.00;98772.50;5051659;28;20230;-71
2021/08/24 09:44:23;;;;;;;6.00;5.60;;;;;;;16.64;100.00;98763.56;5055141;28;20195;-72
2021/08/24 09:46:53;;;;;;;6.10;5.70;;;;;;;16.76;100.00;98760.44;5051397;28;20208;-71
2021/08/24 09:49:33;;;;;;;6.13;5.73;;;;;;;16.75;100.00;98758.78;5047074;28;20207;-71
2021/08/24 09:52:04;;;;;;;6.30;5.67;;;;;;;16.79;100.00;98760.88;5055044;28;20218;-72
2021/08/24 09:54:35;;;;;;;8.80;7.03;;;;;;;17.11;100.00;98766.06;5047338;28;20227;-72
2021/08/24 09:57:05;;;;;;;6.43;5.97;;;;;;;16.75;100.00;98758.78;5052623;28;20196;-71
2021/08/24 09:59:35;;;;;;;6.37;5.87;;;;;;;16.92;100.00;98765.59;5051344;28;20212;-72
2021/08/24 10:02:05;;;;;;;6.13;5.73;;;;;;;17.39;100.00;98768.00;5052633;28;20223;-72
2021/08/24 10:07:36;;;;;;;7.00;6.50;;;;;;;17.25;100.00;98760.88;5095134;27;20566;-70
2021/08/24 10:10:06;;;;;;;6.50;6.00;;;;;;;17.52;100.00;98766.53;5073308;28;20562;-70
2021/08/24 10:12:46;;;;;;;5.77;5.37;;;;;;;17.64;100.00;98762.31;5054132;28;20664;-71
2021/08/24 10:15:24;;;;;;;6.27;5.87;;;;;;;17.62;100.00;98761.66;5053477;28;20663;-70
2021/08/24 10:18:05;;;;;;;6.50;6.00;;;;;;;17.78;100.00;98765.94;5052680;28;20207;-71
2021/08/24 10:20:35;;;;;;;6.67;6.17;;;;;;;17.79;100.00;98764.94;5051544;28;20648;-70
2021/08/24 10:23:08;;;;;;;6.23;5.83;;;;;;;17.97;100.00;98761.78;5050221;28;20206;-69
2021/08/24 10:25:42;;;;;;;6.17;5.60;;;;;;;17.58;100.00;98763.06;5055797;28;20223;-69
2021/08/24 10:28:14;;;;;;;6.23;5.73;;;;;;;17.46;100.00;98768.94;5079350;28;20749;-70
2021/08/24 10:30:45;;;;;;;6.43;6.03;;;;;;;17.35;100.00;98759.53;5077675;28;20214;-70
2021/08/24 10:33:23;;;;;;;7.27;6.77;;;;;;;17.39;100.00;98764.53;5088106;28;20210;-70
2021/08/24 10:35:54;;;;;;;6.80;6.20;;;;;;;17.47;100.00;98761.72;5075091;28;20662;-71
2021/08/24 10:38:36;;;;;;;6.40;6.00;;;;;;;17.43;100.00;98763.97;5070262;28;20203;-70
2021/08/24 10:41:21;;;;;;;6.93;6.07;;;;;;;17.56;100.00;98757.06;5074131;28;20226;-71
2021/08/24 10:43:52;;;;;;;6.60;6.10;;;;;;;17.61;100.00;98762.69;5081580;28;20206;-71
2021/08/24 10:46:20;;;;;;;6.80;6.27;;;;;;;17.66;100.00;98760.25;5069979;28;20337;-70
2021/08/24 10:48:48;;;;;;;6.40;5.80;;;;;;;17.70;100.00;98760.72;5070932;28;20685;-70
2021/08/24 10:51:28;;;;;;;6.20;5.80;;;;;;;17.38;100.00;98757.50;5075632;28;20227;-70
2021/08/24 10:54:06;;;;;;;5.90;5.40;;;;;;;17.30;100.00;98761.97;5078661;28;20194;-72
2021/08/24 10:56:38;;;;;;;6.30;5.87;;;;;;;17.25;100.00;98774.25;5070954;28;20199;-70
2021/08/24 10:59:10;;;;;;;6.30;5.80;;;;;;;17.05;100.00;98773.00;5082784;28;20205;-71
2021/08/24 11:01:45;;;;;;;6.20;5.73;;;;;;;17.25;100.00;98774.25;5071095;28;20227;-70
2021/08/24 11:04:28;;;;;;;6.20;5.60;;;;;;;17.32;100.00;98769.78;5077206;28;20480;-70
2021/08/24 11:07:04;;;;;;;6.60;6.10;;;;;;;17.51;100.00;98771.03;5071540;28;20222;-70
2021/08/24 11:09:46;;;;;;;5.70;5.30;;;;;;;17.74;100.00;98775.41;5073401;28;20209;-70
2021/08/24 11:12:21;;;;;;;6.03;5.63;;;;;;;17.68;100.00;98774.31;5076839;28;20222;-71
2021/08/24 11:15:00;;;;;;;6.00;5.60;;;;;;;17.72;100.00;98769.41;5074390;28;20451;-71
2021/08/24 11:17:39;;;;;;;6.07;5.47;;;;;;;17.95;100.00;98774.56;5061265;28;20199;-70
2021/08/24 11:20:22;;;;;;;6.53;5.90;;;;;;;18.05;100.00;98769.72;5060268;28;20225;-70
2021/08/24 11:23:06;;;;;;;6.70;6.23;;;;;;;18.57;100.00;98776.69;5060510;28;20649;-70
2021/08/24 11:25:42;;;;;;;5.83;5.43;;;;;;;18.56;100.00;98773.19;5053962;28;20210;-70
2021/08/24 11:28:15;;;;;;;6.60;6.10;;;;;;;18.85;100.00;98778.53;5064773;28;20203;-71
2021/08/24 11:30:45;;;;;;;6.00;5.60;;;;;;;18.54;100.00;98772.53;5060443;28;20451;-71
2021/08/24 11:33:20;;;;;;;6.47;5.97;;;;;;;18.30;100.00;98772.00;5060310;28;20667;-70
2021/08/24 11:35:53;;;;;;;5.70;5.40;;;;;;;17.89;100.00;98781.50;5067816;28;20221;-71
2021/08/24 11:38:24;;;;;;;6.30;5.90;;;;;;;18.04;100.00;98772.63;5061280;28;20207;-70
2021/08/24 11:40:59;;;;;;;5.47;5.00;;;;;;;18.04;100.00;98777.97;5058254;28;20226;-70
2021/08/24 11:43:33;;;;;;;5.07;4.77;;;;;;;18.18;100.00;98771.69;5058879;28;20433;-70